Orillia, Canada
Current Conditions -  °F | °C
As of 7:00 AM on Sunday 25 Jan 2015 (Local Time) from CYQA Reporting Station
Few Clouds Few Clouds  
Wind Chill: -14°   Ceiling: Unl
Heat Index:   Visibility: 9mi
Dew Point: -4°   Wind: 9mph
Humidity: 78%   Direction: 340°NNW
Pressure: 29.82"   Gusts: NA
Location:  44.61°N, 79.42°W
Report Text: CYQA 251200Z AUTO 34008KT 9SM FEW015 M17/M20 A2982 RMK SLP118
Loading
Personal Weather Stations






























Interactive Weather Map New forecast layout! Learn more

10-Day Weather Forecast

Advertisements
Track Severe Weather on mobile